Skardu Weather



Skardu's Current Weather

Temprature 14.22o overcast clouds

overcast clouds

Rain: 0 %

Min Temprature14.22o
Max Temprature14.22o
Humidity55
Wind Speed1.22 m/h
Sun Rise04:47:48
Sun Set19:01:04
Current Time: 24-May-2022 07:21:10
Lat/Lon: 35.2885, 75.6333




Skardu's Geo Location



Skardu's Weather Forecast

Time Overall Temp Min Temp Max Temp Humidity Wind Speed Rain
24-May-2022 (Tue)
08:00:00 overcast clouds 14.880 14.880 14.880 51 1.29 m/h 0 %
11:00:00 overcast clouds 15.870 15.870 17.860 47 1.66 m/h 0 %
14:00:00 light rain 18.470 18.470 20.260 39 1.47 m/h 14 %
17:00:00 light rain 20.360 20.360 20.360 36 3.98 m/h 27 %
20:00:00 light rain 17.540 17.540 17.540 48 1.36 m/h 20 %
23:00:00 broken clouds 16.890 16.890 16.890 50 1.41 m/h 0 %
25-May-2022 (Wed)
02:00:00 scattered clouds 16.130 16.130 16.130 53 1.36 m/h 0 %
05:00:00 scattered clouds 15.250 15.250 15.250 55 1.27 m/h 0 %
08:00:00 scattered clouds 17.800 17.800 17.800 41 1.47 m/h 0 %
11:00:00 broken clouds 20.940 20.940 20.940 30 1.49 m/h 0 %
14:00:00 scattered clouds 23.740 23.740 23.740 20 1.8 m/h 0 %
17:00:00 scattered clouds 24.660 24.660 24.660 15 3.2 m/h 0 %
20:00:00 few clouds 22.590 22.590 22.590 22 2.61 m/h 0 %
23:00:00 few clouds 19.600 19.600 19.600 36 2.09 m/h 0 %
26-May-2022 (Thu)
02:00:00 scattered clouds 18.010 18.010 18.010 38 1.06 m/h 0 %
05:00:00 few clouds 16.550 16.550 16.550 38 1.09 m/h 0 %
08:00:00 clear sky 19.630 19.630 19.630 27 1.33 m/h 0 %
11:00:00 scattered clouds 22.640 22.640 22.640 22 1.23 m/h 0 %
14:00:00 overcast clouds 24.840 24.840 24.840 17 1.57 m/h 0 %
17:00:00 broken clouds 24.990 24.990 24.990 17 3.66 m/h 0 %
20:00:00 broken clouds 22.900 22.900 22.900 24 1.96 m/h 0 %
23:00:00 scattered clouds 19.890 19.890 19.890 40 3.15 m/h 0 %
27-May-2022 (Fri)
02:00:00 clear sky 18.540 18.540 18.540 39 1.78 m/h 0 %
05:00:00 clear sky 17.390 17.390 17.390 38 0.82 m/h 0 %
08:00:00 clear sky 20.520 20.520 20.520 25 1.16 m/h 0 %
11:00:00 clear sky 23.680 23.680 23.680 18 1.19 m/h 0 %
14:00:00 scattered clouds 25.730 25.730 25.730 16 1.87 m/h 0 %
17:00:00 light rain 22.330 22.330 22.330 34 3.07 m/h 11 %
20:00:00 light rain 19.940 19.940 19.940 46 2.49 m/h 30 %
23:00:00 light rain 19.370 19.370 19.370 47 1.66 m/h 20 %
28-May-2022 (Sat)
02:00:00 light rain 18.450 18.450 18.450 51 1.19 m/h 15 %
05:00:00 light rain 17.220 17.220 17.220 57 0.99 m/h 20 %
08:00:00 light rain 19.430 19.430 19.430 44 0.66 m/h 13 %
11:00:00 light rain 22.840 22.840 22.840 29 1.07 m/h 12 %
14:00:00 overcast clouds 24.990 24.990 24.990 24 2.05 m/h 0 %
17:00:00 light rain 21.980 21.980 21.980 38 1.77 m/h 27 %
20:00:00 light rain 19.650 19.650 19.650 51 2.6 m/h 21 %
23:00:00 light rain 17.680 17.680 17.680 64 1.76 m/h 40 %
29-May-2022 (Sun)
02:00:00 light rain 16.780 16.780 16.780 68 1.32 m/h 42 %
05:00:00 light rain 16.190 16.190 16.190 65 1.43 m/h 71 %

Famous Cities (61)